Eglin Air Force Base
KVPS : now visible

Airfield :











YOU CAN JOIN US ON...

 
LOGIN :

Register | Disclaimer

   EN    FR    IT 

 









Legend :    VFR   Marginal VFR   IFR   Intensive IFR   Very Intensive IFR
Visi :
Ceiling :
>= 8 km
>= 3000ft
5 to 8 km
1000 to 3000 ft
1500m to 5 km
500 to 1000 ft
800 to 1500m
200 to 500 ft
< 800m
< 200 ft
Symbols :   Thunderstorms  Fog  Heavy snow  Heavy precipitations  Wind > 20 kt







- Airport Elevation : 87 ft
- IATA code : VPS


KVPS - Eglin Air Force Base

CURRENT METAR :
  • 260656Z AUTO 32003KT 10SM CLR 25/19 A3009 RMK AO2 SLP195 T02510185 $

EXPIRED METARs :
  • 260556Z AUTO 32003KT 10SM CLR 26/19 A3010 RMK AO2 SLP199 T02550187 10330 20254 403470197 58000 $
  • 260456Z AUTO 00000KT 10SM CLR 26/19 A3010 RMK AO2 SLP199 T02620191 $
  • 260356Z AUTO 00000KT 10SM SCT080 28/19 A3010 RMK AO2 SLP199 T02830187 $

TAF TAF KVPS
Valid from the 26 at 01:00 until the 27 at 07:00 UTC


260100Z 2601/2707 22009KT 9999 FEW045 QNH3007INS WND VRB05KT AFT 2606
BECMG 2614/2615 22009KT 9999 FEW045 QNH3007INS TX34/2618Z TN19/2611Z
KZJX FIR / North America



MET'MAP, your aeronautical weather chart ! - Copyright ORBIFLY December 2007 - Disclaimer

ORBIFLY MET'MAP TEAM :

Programming & Development : Alexandra Zaïnal
Concept & Development : Baudouin d'Aumeries
Co-Development & Prog : Marc-Olivier Méhu
Technical & hardware support : Manuel Goepfert

Contact : metmap@orbifly.com




SOURCES & CREDITS :

   NOAA       Earth
Advisory